^^
Grace C. Lehan Memorial Weather Station Historical Data
Daily Summary for March 3, 2021 Units:  Metric    English   Both
Daily Weekly Monthly Yearly
  High: Low: Average:
Temperature: 26.1 °C 14.1 °C 20.4 °C
Dew Point: 16.6 °C 12.1 °C 14.3 °C
Humidity: 91.7% 46.5% 70%
Wind Speed: 1.3km/h 0km/h 0km/h
Wind Gust: 8km/h - -
Wind- - NNW
Pressure: 1019.5 hPa 1017.2 hPa -
Precipitation: 0 mm    
 
 
Tabular Data for March 3, 2021
Time Temperature Dew Point Pressure Wind Wind Speed Wind Gust Humidity Rainfall Rate (Hourly) solar
00:04 18.3 °C 14 °C 1017.2 hPa Calm     76% 0 mm 0 W/m2
00:09 18.2 °C 13.9 °C 1017.2 hPa Calm     76% 0 mm 0 W/m2
00:14 18.2 °C 14.1 °C 1017.2 hPa Calm     76.8% 0 mm 0 W/m2
00:19 18.2 °C 14 °C 1017.5 hPa Calm     76.7% 0 mm 0 W/m2
00:24 18.2 °C 14.1 °C 1017.5 hPa Calm     77% 0 mm 0 W/m2
00:29 18.1 °C 14.1 °C 1017.5 hPa Calm     77.4% 0 mm 0 W/m2
00:34 18 °C 14.1 °C 1017.5 hPa Calm     78% 0 mm 0 W/m2
00:39 17.9 °C 13.9 °C 1017.5 hPa Calm     77.6% 0 mm 0 W/m2
00:44 17.8 °C 13.9 °C 1017.5 hPa Calm     78% 0 mm 0 W/m2
00:49 17.7 °C 13.8 °C 1017.8 hPa Calm     78% 0 mm 0 W/m2
00:54 17.7 °C 13.8 °C 1017.8 hPa Calm     77.7% 0 mm 0 W/m2
00:59 17.7 °C 13.6 °C 1017.8 hPa Calm     77% 0 mm 0 W/m2
01:04 17.8 °C 13.7 °C 1017.8 hPa Calm     77% 0 mm 0 W/m2
01:09 17.8 °C 13.7 °C 1017.8 hPa Calm     77% 0 mm 0 W/m2
01:14 17.8 °C 13.7 °C 1017.8 hPa Calm     77% 0 mm 0 W/m2
01:19 17.8 °C 13.7 °C 1017.8 hPa Calm     77% 0 mm 0 W/m2
01:24 17.7 °C 13.6 °C 1017.8 hPa Calm     76.6% 0 mm 0 W/m2
01:29 17.6 °C 13.3 °C 1017.8 hPa Calm     76% 0 mm 0 W/m2
01:34 17.6 °C 13.3 °C 1017.8 hPa Calm     76% 0 mm 0 W/m2
01:39 17.5 °C 13.2 °C 1017.8 hPa Calm     76% 0 mm 0 W/m2
01:44 17.5 °C 13.3 °C 1017.8 hPa Calm     76.3% 0 mm 0 W/m2
01:49 17.5 °C 13.4 °C 1017.8 hPa Calm     76.8% 0 mm 0 W/m2
01:54 17.5 °C 13.4 °C 1017.8 hPa Calm     76.9% 0 mm 0 W/m2
01:59 17.5 °C 13.2 °C 1017.8 hPa Calm     76% 0 mm 0 W/m2
02:04 17.5 °C 13.2 °C 1017.8 hPa Calm     75.9% 0 mm 0 W/m2
02:09 17.4 °C 13.2 °C 1017.8 hPa Calm     76% 0 mm 0 W/m2
02:14 17.4 °C 13 °C 1017.8 hPa Calm     75.3% 0 mm 0 W/m2
02:19 17.3 °C 13 °C 1017.8 hPa Calm     75.7% 0 mm 0 W/m2
02:24 17.3 °C 13.1 °C 1017.8 hPa Calm     76.3% 0 mm 0 W/m2
02:29 17.2 °C 12.9 °C 1017.8 hPa Calm     76% 0 mm 0 W/m2
02:34 17.1 °C 12.8 °C 1017.8 hPa Calm     76% 0 mm 0 W/m2
02:39 17 °C 12.8 °C 1017.8 hPa Calm     76.4% 0 mm 0 W/m2
02:44 16.9 °C 12.8 °C 1017.8 hPa Calm     77% 0 mm 0 W/m2
02:49 16.8 °C 12.8 °C 1017.8 hPa Calm     77.6% 0 mm 0 W/m2
02:54 16.7 °C 12.8 °C 1017.8 hPa Calm     78.1% 0 mm 0 W/m2
02:59 16.6 °C 12.9 °C 1017.8 hPa Calm     79% 0 mm 0 W/m2
03:04 16.4 °C 12.8 °C 1017.8 hPa Calm     79% 0 mm 0 W/m2
03:09 16.3 °C 12.9 °C 1017.8 hPa Calm     79.9% 0 mm 0 W/m2
03:14 16.2 °C 12.8 °C 1017.8 hPa Calm     80% 0 mm 0 W/m2
03:19 16.1 °C 12.8 °C 1017.8 hPa Calm     80.5% 0 mm 0 W/m2
03:24 16 °C 12.8 °C 1018.2 hPa Calm     81.3% 0 mm 0 W/m2
03:29 15.9 °C 12.6 °C 1018.2 hPa Calm     81% 0 mm 0 W/m2
03:34 15.8 °C 12.6 °C 1018.2 hPa Calm     81.4% 0 mm 0 W/m2
03:39 15.7 °C 12.6 °C 1018.2 hPa Calm     82% 0 mm 0 W/m2
03:44 15.6 °C 12.7 °C 1018.2 hPa Calm     82.7% 0 mm 0 W/m2
03:49 15.5 °C 12.7 °C 1018.2 hPa Calm     83% 0 mm 0 W/m2
03:54 15.4 °C 12.7 °C 1018.2 hPa Calm     84% 0 mm 0 W/m2
03:59 15.3 °C 12.7 °C 1018.2 hPa Calm     84% 0 mm 0 W/m2
04:04 15.3 °C 12.8 °C 1018.2 hPa Calm     85% 0 mm 0 W/m2
04:09 15.2 °C 12.7 °C 1018.2 hPa Calm     85% 0 mm 0 W/m2
04:14 15.1 °C 12.6 °C 1018.2 hPa Calm     85% 0 mm 0 W/m2
04:19 15 °C 12.6 °C 1018.2 hPa Calm     85.4% 0 mm 0 W/m2
04:24 14.9 °C 12.6 °C 1018.2 hPa Calm     86% 0 mm 0 W/m2
04:29 14.8 °C 12.6 °C 1018.2 hPa Calm     86% 0 mm 0 W/m2
04:34 14.8 °C 12.4 °C 1018.2 hPa Calm     86% 0 mm 0 W/m2
04:39 14.7 °C 12.4 °C 1018.2 hPa Calm     86% 0 mm 0 W/m2
04:44 14.7 °C 12.3 °C 1018.2 hPa Calm     86% 0 mm 0 W/m2
04:49 14.6 °C 12.4 °C 1018.2 hPa Calm     86.9% 0 mm 0 W/m2
04:54 14.6 °C 12.4 °C 1018.2 hPa Calm     87% 0 mm 0 W/m2
04:59 14.5 °C 12.4 °C 1018.2 hPa Calm     87% 0 mm 0 W/m2
05:04 14.4 °C 12.3 °C 1018.2 hPa Calm     87% 0 mm 0 W/m2
05:09 14.4 °C 12.3 °C 1018.5 hPa Calm     87% 0 mm 0 W/m2
05:14 14.3 °C 12.2 °C 1018.5 hPa Calm     87% 0 mm 0 W/m2
05:19 14.3 °C 12.2 °C 1018.5 hPa Calm     87.5% 0 mm 0 W/m2
05:24 14.3 °C 12.2 °C 1018.5 hPa Calm     87.2% 0 mm 0 W/m2
05:29 14.2 °C 12.1 °C 1018.5 hPa Calm     87% 0 mm 0 W/m2
05:34 14.2 °C 12.2 °C 1018.5 hPa Calm     87.7% 0 mm 0 W/m2
05:39 14.1 °C 12.2 °C 1018.5 hPa Calm     88% 0 mm 0 W/m2
05:44 14.1 °C 12.2 °C 1018.5 hPa Calm     88% 0 mm 0 W/m2
05:49 14.1 °C 12.3 °C 1018.5 hPa Calm     88.6% 0 mm 0 W/m2
05:54 14.1 °C 12.3 °C 1018.5 hPa Calm     89% 0 mm 9 W/m2
05:59 14.1 °C 12.3 °C 1018.5 hPa Calm     89% 0 mm 11 W/m2
06:04 14.1 °C 12.3 °C 1018.5 hPa Calm     89% 0 mm 11 W/m2
06:09 14.1 °C 12.3 °C 1018.5 hPa Calm     89% 0 mm 12 W/m2
06:14 14.1 °C 12.3 °C 1018.8 hPa Calm     89% 0 mm 19 W/m2
06:19 14.1 °C 12.3 °C 1018.5 hPa Calm     89% 0 mm 23 W/m2
06:24 14.1 °C 12.4 °C 1018.5 hPa Calm     89.6% 0 mm 25 W/m2
06:29 14.2 °C 12.6 °C 1018.5 hPa Calm     90% 0 mm 28 W/m2
06:34 14.2 °C 12.6 °C 1018.5 hPa Calm     90% 0 mm 33 W/m2
06:39 14.3 °C 12.7 °C 1018.5 hPa Calm     90% 0 mm 44 W/m2
06:44 14.4 °C 12.9 °C 1018.8 hPa Calm     91% 0 mm 51 W/m2
06:49 14.5 °C 13.1 °C 1018.8 hPa Calm     91% 0 mm 63 W/m2
06:54 14.7 °C 13.2 °C 1018.8 hPa Calm     91% 0 mm 102 W/m2
06:59 14.9 °C 13.6 °C 1018.8 hPa Calm     91.7% 0 mm 146 W/m2
07:04 15.2 °C 13.7 °C 1018.8 hPa Calm     91.1% 0 mm 169 W/m2
07:09 15.6 °C 14.1 °C 1018.8 hPa Calm     90.9% 0 mm 174 W/m2
07:14 15.9 °C 14.1 °C 1018.8 hPa Calm     89.1% 0 mm 120 W/m2
07:19 16.1 °C 13.9 °C 1018.8 hPa Calm     86.6% 0 mm 83 W/m2
07:24 16.3 °C 13.9 °C 1018.8 hPa Calm     86% 0 mm 105 W/m2
07:29 16.4 °C 14 °C 1018.8 hPa Calm     85.6% 0 mm 132 W/m2
07:34 16.4 °C 13.9 °C 1018.8 hPa Calm     84.6% 0 mm 149 W/m2
07:39 16.6 °C 13.9 °C 1018.8 hPa Calm     84.6% 0 mm 123 W/m2
07:44 16.7 °C 14.1 °C 1018.8 hPa Calm     84.4% 0 mm 120 W/m2
07:49 16.8 °C 14.1 °C 1019.2 hPa Calm     84% 0 mm 181 W/m2
07:54 16.9 °C 14 °C 1019.2 hPa Calm     83% 0 mm 185 W/m2
07:59 17.1 °C 14.1 °C 1019.2 hPa Calm     82.6% 0 mm 204 W/m2
08:09 17.5 °C 14.3 °C 1019.2 hPa Calm     81.5% 0 mm 234 W/m2
08:14 17.8 °C 14.7 °C 1019.2 hPa Calm     81.7% 0 mm 244 W/m2
08:19 18.1 °C 14.4 °C 1019.2 hPa Calm     79.5% 0 mm 244 W/m2
08:24 18.3 °C 14.2 °C 1019.2 hPa Calm     77.4% 0 mm 232 W/m2
08:29 18.4 °C 14.1 °C 1019.2 hPa Calm     76.2% 0 mm 258 W/m2
08:34 18.6 °C 14.2 °C 1019.2 hPa Calm     75.8% 0 mm 276 W/m2
08:39 18.8 °C 14.5 °C 1019.2 hPa Calm     76.1% 0 mm 246 W/m2
08:44 18.9 °C 14.4 °C 1019.2 hPa Calm     75.1% 0 mm 258 W/m2
08:49 19.1 °C 14.5 °C 1019.2 hPa Calm     74.6% 0 mm 374 W/m2
08:54 19.3 °C 14.6 °C 1019.2 hPa Calm     73.7% 0 mm 399 W/m2
08:59 19.7 °C 15 °C 1019.2 hPa Calm     74.4% 0 mm 397 W/m2
09:04 20 °C 15.1 °C 1019.2 hPa Calm     73.3% 0 mm 392 W/m2
09:09 20.3 °C 15.1 °C 1019.2 hPa Calm     72.2% 0 mm 322 W/m2
09:14 20.4 °C 15 °C 1019.2 hPa Calm     71.2% 0 mm 290 W/m2
09:19 20.6 °C 15.2 °C 1019.2 hPa Calm     71.3% 0 mm 283 W/m2
09:24 20.6 °C 14.8 °C 1019.2 hPa Calm     69.6% 0 mm 299 W/m2
09:29 20.6 °C 15.1 °C 1019.5 hPa Calm     70.9% 0 mm 292 W/m2
09:34 20.6 °C 15 °C 1019.2 hPa Calm     70.1% 0 mm 336 W/m2
09:39 20.7 °C 15.3 °C 1019.2 hPa Calm     71.2% 0 mm 369 W/m2
09:44 20.9 °C 15.6 °C 1019.5 hPa Calm     71.7% 0 mm 434 W/m2
09:49 21.2 °C 15.8 °C 1019.5 hPa Calm     71.4% 0 mm 510 W/m2
09:54 21.4 °C 15.7 °C 1019.5 hPa Calm     69.8% 0 mm 508 W/m2
09:59 21.8 °C 15.7 °C 1019.5 hPa Calm     68% 0 mm 448 W/m2
10:04 22 °C 15.2 °C 1019.5 hPa Calm     65.2% 0 mm 471 W/m2
10:09 22.2 °C 15.5 °C 1019.5 hPa Calm     65.7% 0 mm 457 W/m2
10:14 22.2 °C 15.4 °C 1019.5 hPa Calm     65.5% 0 mm 422 W/m2
10:19 22.3 °C 15.6 °C 1019.5 hPa Calm     65.5% 0 mm 475 W/m2
10:24 22.3 °C 15.3 °C 1019.5 hPa Calm     64.5% 0 mm 418 W/m2
10:29 22.4 °C 15.3 °C 1019.5 hPa Calm     64% 0 mm 394 W/m2
10:34 22.6 °C 15.2 °C 1019.5 hPa Calm     63.3% 0 mm 431 W/m2
10:39 22.6 °C 15.4 °C 1019.5 hPa Calm     63.9% 0 mm 397 W/m2
10:44 22.6 °C 15.4 °C 1019.5 hPa Calm     63.7% 0 mm 353 W/m2
10:49 22.6 °C 15.1 °C 1019.5 hPa Calm     62.3% 0 mm 345 W/m2
10:54 22.7 °C 15.7 °C 1019.5 hPa Calm     65% 0 mm 302 W/m2
10:59 22.7 °C 15.5 °C 1019.5 hPa Calm     63.9% 0 mm 332 W/m2
11:04 22.7 °C 15.4 °C 1019.5 hPa Calm     63.4% 0 mm 383 W/m2
11:09 22.8 °C 15.7 °C 1019.5 hPa Calm     64.4% 0 mm 406 W/m2
11:14 22.9 °C 15.8 °C 1019.5 hPa Calm     64.2% 0 mm 390 W/m2
11:19 22.9 °C 15.2 °C 1019.2 hPa Calm     61.5% 0 mm 357 W/m2
11:24 23 °C 14.9 °C 1019.2 hPa Calm     60.5% 0 mm 376 W/m2
11:29 23.1 °C 15.2 °C 1019.2 hPa Calm     61.5% 0 mm 394 W/m2
11:34 23.2 °C 15.6 °C 1019.2 hPa Calm     62.1% 0 mm 394 W/m2
11:39 23.3 °C 15.8 °C 1019.2 hPa Calm     62.7% 0 mm 410 W/m2
11:44 23.4 °C 15.9 °C 1019.2 hPa Calm     62.7% 0 mm 410 W/m2
11:49 23.6 °C 15.9 °C 1019.2 hPa Calm     62.2% 0 mm 431 W/m2
11:54 23.7 °C 15.8 °C 1019.2 hPa Calm     61.4% 0 mm 431 W/m2
11:59 23.8 °C 15.9 °C 1019.2 hPa Calm     61.6% 0 mm 427 W/m2
12:00 23.8 °C 15.6 °C 1019.2 hPa Calm     60% 0 mm 427 W/m2
12:09 23.9 °C 15.8 °C 1018.8 hPa Calm     60.6% 0 mm 445 W/m2
12:14 24 °C 15.7 °C 1018.8 hPa Calm     59.8% 0 mm 439 W/m2
12:19 24.1 °C 16 °C 1018.8 hPa Calm     60.7% 0 mm 413 W/m2
12:24 24.1 °C 15.7 °C 1018.8 hPa Calm     59.5% 0 mm 369 W/m2
12:29 24.1 °C 15.6 °C 1018.8 hPa Calm     58.7% 0 mm 339 W/m2
12:34 24.2 °C 15.7 °C 1018.8 hPa Calm     59% 0 mm 345 W/m2
12:39 24.3 °C 16.1 °C 1018.8 hPa Calm     60.1% 0 mm 359 W/m2
12:44 24.3 °C 16.1 °C 1018.8 hPa Calm     60% 0 mm 385 W/m2
12:49 24.4 °C 16.3 °C 1018.8 hPa Calm     60.6% 0 mm 385 W/m2
12:54 24.4 °C 15.7 °C 1018.8 hPa Calm     58.3% 0 mm 338 W/m2
12:59 24.6 °C 15.8 °C 1018.5 hPa Calm     58.4% 0 mm 327 W/m2
13:04 24.6 °C 15.9 °C 1018.5 hPa Calm     58.2% 0 mm 339 W/m2
13:09 24.7 °C 16 °C 1018.5 hPa Calm     58.5% 0 mm 339 W/m2
13:14 24.7 °C 16.2 °C 1018.5 hPa Calm     59.1% 0 mm 346 W/m2
13:19 24.6 °C 15.7 °C 1018.5 hPa Calm     57.6% 0 mm 311 W/m2
13:24 24.4 °C 15.6 °C 1018.5 hPa Calm     57.7% 0 mm 299 W/m2
13:29 24.3 °C 16.1 °C 1018.5 hPa Calm     59.9% 0 mm 292 W/m2
13:34 24.4 °C 16 °C 1018.5 hPa Calm     59.4% 0 mm 278 W/m2
13:39 24.5 °C 16.3 °C 1018.5 hPa Calm     60.3% 0 mm 279 W/m2
13:44 24.5 °C 15.9 °C 1018.5 hPa Calm     58.6% 0 mm 278 W/m2
13:49 24.5 °C 16.6 °C 1018.5 hPa Calm     61.1% 0 mm 279 W/m2
13:54 24.6 °C 16.6 °C 1018.5 hPa Calm     60.9% 0 mm 283 W/m2
13:59 24.7 °C 16.4 °C 1018.5 hPa Calm     59.9% 0 mm 283 W/m2
14:04 24.7 °C 15.7 °C 1018.5 hPa Calm     57.3% 0 mm 264 W/m2
14:09 24.7 °C 15.6 °C 1018.5 hPa Calm     57.2% 0 mm 308 W/m2
14:14 24.6 °C 16.1 °C 1018.5 hPa Calm     59.1% 0 mm 360 W/m2
14:19 24.5 °C 15.7 °C 1018.5 hPa Calm     57.9% 0 mm 352 W/m2
14:24 24.6 °C 16.1 °C 1018.2 hPa NNW 0.5 km/h 8 km/h 59.2% 0 mm 446 W/m2
14:29 24.7 °C 16.1 °C 1018.2 hPa NNW 0.2 km/h 8 km/h 59% 0 mm 540 W/m2
14:34 24.8 °C 15.9 °C 1018.2 hPa NNW 0.3 km/h 8 km/h 57.8% 0 mm 582 W/m2
14:39 25.1 °C 16.2 °C 1018.2 hPa NNW 0.8 km/h 6.4 km/h 57.9% 0 mm 782 W/m2
14:44 25.3 °C 16.1 °C 1018.2 hPa Calm   6.4 km/h 56.5% 0 mm 954 W/m2
14:49 25.6 °C 15.7 °C 1018.2 hPa NNW 1.3 km/h 6.4 km/h 54.2% 0 mm 814 W/m2
14:54 25.8 °C 15.7 °C 1018.2 hPa NNW 1 km/h 8 km/h 53.6% 0 mm 814 W/m2
14:59 25.9 °C 15.3 °C 1018.2 hPa NNW 0.2 km/h 8 km/h 51.9% 0 mm 520 W/m2
15:04 26 °C 14.9 °C 1018.2 hPa NNW 0.2 km/h 8 km/h 50.5% 0 mm 357 W/m2
15:09 26.1 °C 14.5 °C 1017.8 hPa Calm   3.2 km/h 48.9% 0 mm 353 W/m2
15:14 26.1 °C 14.5 °C 1017.8 hPa Calm   4.8 km/h 48.9% 0 mm 343 W/m2
15:19 25.9 °C 14.2 °C 1017.8 hPa NNW 0.3 km/h 4.8 km/h 48.2% 0 mm 345 W/m2
15:24 25.8 °C 13.5 °C 1017.8 hPa Calm   4.8 km/h 46.5% 0 mm 439 W/m2
15:29 25.7 °C 14 °C 1017.8 hPa Calm   4.8 km/h 48.3% 0 mm 403 W/m2
15:34 25.6 °C 14.5 °C 1017.8 hPa NNW 0.2 km/h 4.8 km/h 50.3% 0 mm 346 W/m2
15:39 25.5 °C 13.9 °C 1017.8 hPa Calm   3.2 km/h 48.8% 0 mm 527 W/m2
15:44 25.4 °C 13.1 °C 1017.5 hPa Calm   3.2 km/h 46.5% 0 mm 469 W/m2
15:49 25.4 °C 13.4 °C 1017.5 hPa NNW 0.3 km/h 4.8 km/h 47.3% 0 mm 432 W/m2
15:54 25.4 °C 13.9 °C 1017.5 hPa Calm   4.8 km/h 49% 0 mm 350 W/m2
15:59 25.4 °C 14.1 °C 1017.5 hPa Calm   4.8 km/h 49.3% 0 mm 327 W/m2
16:04 25.4 °C 13.4 °C 1017.5 hPa Calm   4.8 km/h 47.5% 0 mm 327 W/m2
16:09 25.3 °C 13.4 °C 1017.5 hPa Calm     47.6% 0 mm 318 W/m2
16:14 25.3 °C 13.3 °C 1017.5 hPa Calm     47.4% 0 mm 302 W/m2
16:19 25.2 °C 13.4 °C 1017.2 hPa Calm     48% 0 mm 193 W/m2
16:24 25.1 °C 12.9 °C 1017.2 hPa Calm     46.8% 0 mm 209 W/m2
16:29 24.9 °C 12.8 °C 1017.5 hPa Calm     46.6% 0 mm 200 W/m2
16:34 24.9 °C 12.7 °C 1017.5 hPa Calm     46.5% 0 mm 190 W/m2
16:39 24.8 °C 13.1 °C 1017.2 hPa Calm     47.9% 0 mm 195 W/m2
16:44 24.8 °C 14.1 °C 1017.2 hPa Calm     51.1% 0 mm 192 W/m2
16:49 24.9 °C 14.3 °C 1017.2 hPa Calm     51.7% 0 mm 176 W/m2
16:54 25 °C 13.9 °C 1017.2 hPa Calm     50.3% 0 mm 178 W/m2
16:59 25 °C 14.4 °C 1017.2 hPa Calm     51.9% 0 mm 169 W/m2
17:04 25 °C 14.1 °C 1017.2 hPa Calm     50.9% 0 mm 167 W/m2
17:09 24.9 °C 14.1 °C 1017.2 hPa Calm     51% 0 mm 165 W/m2
17:14 24.9 °C 13.9 °C 1017.2 hPa Calm     50.6% 0 mm 141 W/m2
17:19 24.9 °C 14.3 °C 1017.2 hPa Calm     51.9% 0 mm 142 W/m2
17:24 24.9 °C 14.4 °C 1017.2 hPa Calm     52.3% 0 mm 132 W/m2
17:29 24.9 °C 14.3 °C 1017.2 hPa Calm     51.8% 0 mm 134 W/m2
17:34 24.9 °C 14.1 °C 1017.2 hPa Calm     51% 0 mm 141 W/m2
17:39 24.8 °C 13.5 °C 1017.2 hPa Calm   1.6 km/h 49.3% 0 mm 141 W/m2
17:44 24.8 °C 13.8 °C 1017.2 hPa Calm   1.6 km/h 50.2% 0 mm 120 W/m2
17:49 24.8 °C 13.7 °C 1017.2 hPa Calm   1.6 km/h 50% 0 mm 81 W/m2
17:54 24.8 °C 13.9 °C 1017.2 hPa Calm   1.6 km/h 50.7% 0 mm 69 W/m2
17:59 24.8 °C 14.2 °C 1017.2 hPa Calm   1.6 km/h 51.6% 0 mm 65 W/m2
18:04 24.7 °C 14.1 °C 1017.5 hPa Calm   1.6 km/h 51.6% 0 mm 63 W/m2
18:09 24.6 °C 14.3 °C 1017.5 hPa Calm     52.7% 0 mm 70 W/m2
18:14 24.4 °C 14 °C 1017.5 hPa Calm     52.2% 0 mm 79 W/m2
18:19 24.3 °C 13.9 °C 1017.5 hPa Calm     52.3% 0 mm 79 W/m2
18:24 24.3 °C 14.1 °C 1017.5 hPa Calm     53.2% 0 mm 72 W/m2
18:29 24.2 °C 14.3 °C 1017.5 hPa Calm     53.8% 0 mm 69 W/m2
18:34 24.2 °C 14.1 °C 1017.2 hPa Calm     53.4% 0 mm 63 W/m2
18:39 24.1 °C 13.8 °C 1017.5 hPa Calm     52.5% 0 mm 58 W/m2
18:44 24 °C 13.8 °C 1017.2 hPa Calm     52.7% 0 mm 44 W/m2
18:49 23.9 °C 13.8 °C 1017.2 hPa Calm     53% 0 mm 30 W/m2
18:54 23.8 °C 13.6 °C 1017.2 hPa Calm     52.8% 0 mm 32 W/m2
18:59 23.7 °C 13.6 °C 1017.2 hPa Calm     53% 0 mm 35 W/m2
19:04 23.6 °C 13.3 °C 1017.2 hPa Calm     52.5% 0 mm 35 W/m2
19:09 23.5 °C 13.4 °C 1017.5 hPa Calm     53% 0 mm 28 W/m2
19:14 23.4 °C 13.6 °C 1017.5 hPa Calm     54.1% 0 mm 21 W/m2
19:19 23.3 °C 13.6 °C 1017.2 hPa Calm     54.3% 0 mm 21 W/m2
19:24 23.2 °C 13.9 °C 1017.5 hPa Calm     55.6% 0 mm 19 W/m2
19:29 23.2 °C 14 °C 1017.5 hPa Calm     56.3% 0 mm 18 W/m2
19:34 23.1 °C 13.9 °C 1017.2 hPa Calm     56.3% 0 mm 14 W/m2
19:39 22.9 °C 13.8 °C 1017.2 hPa Calm     56.6% 0 mm 14 W/m2
19:44 22.8 °C 13.8 °C 1017.5 hPa Calm     56.9% 0 mm 12 W/m2
19:49 22.7 °C 13.9 °C 1017.5 hPa Calm     57.4% 0 mm 11 W/m2
19:54 22.7 °C 14.2 °C 1017.5 hPa Calm     58.9% 0 mm 9 W/m2
19:59 22.6 °C 14.7 °C 1017.5 hPa Calm     61% 0 mm 0 W/m2
20:09 22.3 °C 15 °C 1017.5 hPa Calm     63.3% 0 mm 0 W/m2
20:14 22.2 °C 15.2 °C 1017.5 hPa Calm     64.6% 0 mm 0 W/m2
20:19 22.1 °C 15.3 °C 1017.5 hPa Calm     65.4% 0 mm 0 W/m2
20:24 21.9 °C 15.6 °C 1017.5 hPa Calm     67.1% 0 mm 0 W/m2
20:29 21.7 °C 15.6 °C 1017.5 hPa Calm     68% 0 mm 0 W/m2
20:34 21.5 °C 15.4 °C 1017.5 hPa Calm     68% 0 mm 0 W/m2
20:39 21.3 °C 15.4 °C 1017.5 hPa Calm     69% 0 mm 0 W/m2
20:44 21.2 °C 15.4 °C 1017.8 hPa Calm     69.3% 0 mm 0 W/m2
20:49 21.1 °C 15.4 °C 1017.8 hPa Calm     70.2% 0 mm 0 W/m2
20:54 20.9 °C 15.4 °C 1017.8 hPa Calm     71% 0 mm 0 W/m2
20:59 20.8 °C 15.5 °C 1017.8 hPa Calm     71.7% 0 mm 0 W/m2
21:04 20.7 °C 15.4 °C 1017.8 hPa Calm     72% 0 mm 0 W/m2
21:09 20.6 °C 15.6 °C 1017.8 hPa Calm     72.8% 0 mm 0 W/m2
21:14 20.5 °C 15.5 °C 1018.2 hPa Calm     73% 0 mm 0 W/m2
21:19 20.3 °C 15.3 °C 1018.2 hPa Calm     73% 0 mm 0 W/m2
21:24 20.3 °C 15.3 °C 1018.2 hPa Calm     73.4% 0 mm 0 W/m2
21:29 20.2 °C 15.4 °C 1018.2 hPa Calm     73.9% 0 mm 0 W/m2
21:34 20.1 °C 15.1 °C 1018.2 hPa Calm     73.3% 0 mm 0 W/m2
21:39 19.9 °C 15.1 °C 1018.2 hPa Calm     73.5% 0 mm 0 W/m2
21:44 19.9 °C 15.2 °C 1018.2 hPa Calm     74.4% 0 mm 0 W/m2
21:49 19.8 °C 14.8 °C 1018.2 hPa Calm     73% 0 mm 0 W/m2
21:54 19.7 °C 14.7 °C 1018.2 hPa Calm     73% 0 mm 0 W/m2
21:58 19.6 °C 14.7 °C 1018.2 hPa Calm     73% 0 mm 0 W/m2
22:04 19.6 °C 14.6 °C 1018.2 hPa Calm     73% 0 mm 0 W/m2
22:09 19.5 °C 14.7 °C 1017.8 hPa Calm     74% 0 mm 0 W/m2
22:14 19.4 °C 14.9 °C 1017.8 hPa Calm     75% 0 mm 0 W/m2
22:19 19.3 °C 15.1 °C 1017.8 hPa Calm     76.1% 0 mm 0 W/m2
22:24 19.3 °C 15.2 °C 1017.8 hPa Calm     77.1% 0 mm 0 W/m2
22:29 19.2 °C 15.3 °C 1017.8 hPa Calm     78% 0 mm 0 W/m2
22:34 19.2 °C 15.3 °C 1017.8 hPa Calm     78.4% 0 mm 0 W/m2
22:39 19.1 °C 15.4 °C 1017.8 hPa Calm     79% 0 mm 0 W/m2
22:44 19 °C 15.3 °C 1017.8 hPa Calm     79.3% 0 mm 0 W/m2
22:49 18.9 °C 15.2 °C 1018.2 hPa Calm     79.3% 0 mm 0 W/m2
22:54 18.8 °C 15.3 °C 1018.2 hPa Calm     80% 0 mm 0 W/m2
22:59 18.7 °C 15.2 °C 1017.8 hPa Calm     80% 0 mm 0 W/m2
23:04 18.7 °C 15.3 °C 1017.8 hPa Calm     80.7% 0 mm 0 W/m2
23:09 18.6 °C 15.2 °C 1018.2 hPa Calm     81% 0 mm 0 W/m2
23:14 18.5 °C 15.2 °C 1018.2 hPa Calm     81% 0 mm 0 W/m2
23:19 18.4 °C 15.2 °C 1017.8 hPa Calm     81% 0 mm 0 W/m2
23:24 18.4 °C 15.1 °C 1017.8 hPa Calm     81% 0 mm 0 W/m2
23:29 18.4 °C 15.1 °C 1017.8 hPa Calm     80.9% 0 mm 0 W/m2
23:34 18.4 °C 14.9 °C 1018.2 hPa Calm     80% 0 mm 0 W/m2
23:39 18.4 °C 14.9 °C 1018.2 hPa Calm     80.2% 0 mm 0 W/m2
23:44 18.4 °C 15.1 °C 1018.2 hPa Calm     81% 0 mm 0 W/m2
23:49 18.3 °C 15 °C 1018.2 hPa Calm     81% 0 mm 0 W/m2
23:54 18.3 °C 15 °C 1018.2 hPa Calm     81% 0 mm 0 W/m2
23:59 18.3 °C 14.9 °C 1018.2 hPa Calm     81% 0 mm 0 W/m2
Hartford County Weather
Compliments of Weather Underground - 2 mb